createdAt,value
2023-05-19T00:04:28.808Z,102645.00
2023-05-19T00:09:37.028Z,102646.00
2023-05-19T00:14:46.080Z,102641.00
2023-05-19T00:19:52.476Z,102634.00
2023-05-19T00:25:08.266Z,102634.00
2023-05-19T00:30:12.915Z,102633.00
2023-05-19T00:35:22.475Z,102622.00
2023-05-19T00:40:42.768Z,102620.00
2023-05-19T00:45:50.095Z,102624.00
2023-05-19T00:51:00.344Z,102621.00
2023-05-19T00:56:08.179Z,102624.00
2023-05-19T01:01:15.206Z,102621.00
2023-05-19T01:06:19.497Z,102626.00
2023-05-19T01:11:29.764Z,102633.00
2023-05-19T01:16:40.712Z,102626.00
2023-05-19T01:22:35.078Z,102626.00
2023-05-19T01:28:25.675Z,102625.00
2023-05-19T01:33:34.746Z,102621.00
2023-05-19T01:38:48.593Z,102621.00
2023-05-19T01:43:55.267Z,102619.00
2023-05-19T01:49:15.999Z,102611.00
2023-05-19T01:54:22.999Z,102619.00
2023-05-19T01:59:52.437Z,102611.00
2023-05-19T02:05:09.862Z,102619.00
2023-05-19T02:10:28.335Z,102614.00
2023-05-19T02:15:44.066Z,102613.00
2023-05-19T02:20:50.546Z,102613.00
2023-05-19T02:25:58.034Z,102612.00
2023-05-19T02:31:04.420Z,102613.00
2023-05-19T02:36:11.497Z,102614.00
2023-05-19T02:41:25.370Z,102619.00
2023-05-19T02:46:30.768Z,102620.00
2023-05-19T02:51:37.755Z,102617.00
2023-05-19T02:56:44.699Z,102610.00
2023-05-19T03:01:48.865Z,102602.00
2023-05-19T03:06:58.902Z,102608.00
2023-05-19T03:12:11.430Z,102610.00
2023-05-19T03:17:17.344Z,102614.00
2023-05-19T03:22:27.989Z,102612.00
2023-05-19T03:27:35.086Z,102611.00
2023-05-19T03:32:46.240Z,102615.00
2023-05-19T03:37:52.874Z,102607.00
2023-05-19T03:42:57.809Z,102609.00
2023-05-19T03:48:09.426Z,102612.00
2023-05-19T03:53:36.611Z,102621.00
2023-05-19T03:58:46.319Z,102617.00
2023-05-19T04:03:51.854Z,102621.00
2023-05-19T04:08:55.885Z,102616.00
2023-05-19T04:14:01.415Z,102605.00
2023-05-19T04:19:04.108Z,102628.00
2023-05-19T04:24:08.597Z,102616.00
2023-05-19T04:29:14.157Z,102622.00
2023-05-19T04:34:16.689Z,102627.00
2023-05-19T04:39:20.729Z,102618.00
2023-05-19T04:44:23.351Z,102621.00
2023-05-19T04:49:27.471Z,102617.00
2023-05-19T04:54:31.441Z,102624.00
2023-05-19T04:59:37.060Z,102621.00
2023-05-19T05:04:41.899Z,102616.00
2023-05-19T05:09:45.923Z,102623.00
2023-05-19T05:14:51.993Z,102643.00
2023-05-19T05:19:56.200Z,102641.00
2023-05-19T05:25:08.421Z,102631.00
2023-05-19T05:30:12.782Z,102633.00
2023-05-19T05:35:16.704Z,102632.00
2023-05-19T05:40:21.461Z,102629.00
2023-05-19T05:45:25.658Z,102625.00
2023-05-19T05:50:34.013Z,102634.00
2023-05-19T05:56:08.664Z,102640.00
2023-05-19T06:01:49.835Z,102615.00
2023-05-19T06:07:06.097Z,102631.00
2023-05-19T06:12:16.638Z,102643.00
2023-05-19T06:17:24.377Z,102651.00
2023-05-19T06:22:28.288Z,102642.00
2023-05-19T06:27:36.772Z,102649.00
2023-05-19T06:32:41.643Z,102651.00
2023-05-19T06:37:46.932Z,102662.00
2023-05-19T06:43:02.363Z,102663.00
2023-05-19T06:48:28.992Z,102672.00
2023-05-19T06:53:34.358Z,102666.00
2023-05-19T06:58:45.974Z,102661.00
2023-05-19T07:03:49.766Z,102670.00
2023-05-19T07:08:54.359Z,102664.00
2023-05-19T07:14:14.196Z,102671.00
2023-05-19T07:19:23.308Z,102675.00
2023-05-19T07:24:48.174Z,102671.00
2023-05-19T07:30:04.119Z,102668.00
2023-05-19T07:35:28.587Z,102655.00
2023-05-19T07:40:47.438Z,102663.00
2023-05-19T07:46:20.980Z,102656.00
2023-05-19T07:51:29.251Z,102666.00
2023-05-19T07:56:36.184Z,102661.00
2023-05-19T08:01:43.775Z,102643.00
2023-05-19T08:06:49.763Z,102660.00
2023-05-19T08:11:55.141Z,102660.00
2023-05-19T08:17:02.156Z,102645.00
2023-05-19T08:22:08.737Z,102656.00
2023-05-19T08:27:19.645Z,102644.00
2023-05-19T08:32:35.639Z,102643.00
2023-05-19T08:37:41.061Z,102652.00
2023-05-19T08:42:47.888Z,102644.00
2023-05-19T08:47:53.779Z,102645.00
2023-05-19T08:53:32.508Z,102645.00
2023-05-19T08:58:48.380Z,102647.00
2023-05-19T09:03:56.120Z,102642.00
2023-05-19T09:09:02.504Z,102648.00
2023-05-19T09:14:12.973Z,102634.00
2023-05-19T09:19:23.184Z,102630.00
2023-05-19T09:24:43.547Z,102640.00
2023-05-19T09:29:50.562Z,102645.00
2023-05-19T09:35:26.331Z,102635.00
2023-05-19T09:40:30.258Z,102639.00
2023-05-19T09:45:39.211Z,102645.00
2023-05-19T09:50:57.511Z,102641.00
2023-05-19T09:56:08.462Z,102649.00
2023-05-19T10:01:12.686Z,102639.00
2023-05-19T10:06:21.595Z,102632.00
2023-05-19T10:11:34.025Z,102646.00
2023-05-19T10:16:38.857Z,102647.00
2023-05-19T10:21:47.807Z,102638.00
2023-05-19T10:26:58.828Z,102645.00
2023-05-19T10:32:14.848Z,102640.00
2023-05-19T10:37:31.921Z,102640.00
2023-05-19T10:43:04.324Z,102642.00
2023-05-19T10:48:34.438Z,102643.00
2023-05-19T10:53:42.807Z,102642.00
2023-05-19T10:58:54.688Z,102647.00
2023-05-19T11:03:58.270Z,102646.00
2023-05-19T11:09:12.804Z,102638.00
2023-05-19T11:14:21.055Z,102626.00
2023-05-19T11:19:28.344Z,102639.00
2023-05-19T11:24:45.647Z,102642.00
2023-05-19T11:29:49.979Z,102653.00
2023-05-19T11:34:55.434Z,102652.00
2023-05-19T11:40:09.410Z,102652.00
2023-05-19T11:45:13.852Z,102653.00
2023-05-19T11:50:22.157Z,102662.00
2023-05-19T11:55:26.797Z,102673.00
2023-05-19T12:00:35.860Z,102668.00
2023-05-19T12:05:46.887Z,102672.00
2023-05-19T12:10:53.321Z,102650.00
2023-05-19T12:16:00.987Z,102662.00
2023-05-19T12:21:10.163Z,102656.00
2023-05-19T12:26:16.385Z,102653.00
2023-05-19T12:31:20.035Z,102648.00
2023-05-19T12:36:25.406Z,102638.00
2023-05-19T12:41:34.705Z,102631.00
2023-05-19T12:46:41.377Z,102630.00
2023-05-19T12:51:55.101Z,102629.00
2023-05-19T12:57:01.629Z,102623.00
2023-05-19T13:02:04.885Z,102606.00
2023-05-19T13:07:09.981Z,102618.00
2023-05-19T13:12:15.267Z,102628.00
2023-05-19T13:17:18.224Z,102647.00
2023-05-19T13:22:21.963Z,102641.00
2023-05-19T13:27:26.200Z,102631.00
2023-05-19T13:32:28.968Z,102626.00
2023-05-19T13:37:32.484Z,102628.00
2023-05-19T13:42:36.743Z,102620.00
2023-05-19T13:47:39.697Z,102607.00
2023-05-19T13:52:43.500Z,102606.00
2023-05-19T13:57:47.447Z,102602.00
2023-05-19T14:02:50.019Z,102599.00
2023-05-19T14:07:52.568Z,102578.00
2023-05-19T14:13:26.002Z,102590.00
2023-05-19T14:18:18.948Z,102586.00
2023-05-19T14:23:21.406Z,102586.00
2023-05-19T14:28:25.353Z,102588.00
2023-05-19T14:33:27.928Z,102603.00
2023-05-19T14:38:33.410Z,102587.00
2023-05-19T14:43:37.308Z,102593.00
2023-05-19T14:48:39.814Z,102585.00
2023-05-19T14:53:42.250Z,102590.00
2023-05-19T14:58:46.177Z,102576.00
2023-05-19T15:03:48.794Z,102578.00
2023-05-19T15:08:51.311Z,102573.00
2023-05-19T15:13:55.163Z,102577.00
2023-05-19T15:18:57.696Z,102581.00
2023-05-19T15:24:00.233Z,102588.00
2023-05-19T15:29:04.257Z,102591.00
2023-05-19T15:34:06.830Z,102596.00
2023-05-19T15:39:09.363Z,102594.00
2023-05-19T15:44:13.277Z,102587.00
2023-05-19T15:49:15.957Z,102590.00
2023-05-19T15:54:18.738Z,102586.00
2023-05-19T15:59:22.662Z,102587.00
2023-05-19T16:04:25.281Z,102593.00
2023-05-19T16:09:27.847Z,102594.00
2023-05-19T16:14:31.898Z,102587.00
2023-05-19T16:19:34.484Z,102600.00
2023-05-19T16:24:37.017Z,102598.00
2023-05-19T16:29:42.068Z,102594.00
2023-05-19T16:34:44.619Z,102598.00
2023-05-19T16:39:47.125Z,102597.00
2023-05-19T16:44:51.090Z,102592.00
2023-05-19T16:49:53.578Z,102594.00
2023-05-19T16:54:56.029Z,102590.00
2023-05-19T16:59:59.948Z,102593.00
2023-05-19T17:05:02.680Z,102586.00
2023-05-19T17:10:06.373Z,102592.00
2023-05-19T17:15:11.287Z,102594.00
2023-05-19T17:20:14.217Z,102581.00
2023-05-19T17:25:19.353Z,102584.00
2023-05-19T17:30:23.678Z,102577.00
2023-05-19T17:35:28.264Z,102570.00
2023-05-19T17:40:31.133Z,102576.00
2023-05-19T17:45:37.894Z,102578.00
2023-05-19T17:50:40.357Z,102565.00
2023-05-19T17:55:50.017Z,102577.00
2023-05-19T18:00:55.104Z,102574.00
2023-05-19T18:05:58.741Z,102568.00
2023-05-19T18:11:02.649Z,102576.00
2023-05-19T18:16:07.445Z,102575.00
2023-05-19T18:21:12.668Z,102577.00
2023-05-19T18:26:15.253Z,102584.00
2023-05-19T18:31:19.589Z,102582.00
2023-05-19T18:36:23.332Z,102586.00
2023-05-19T18:41:25.909Z,102585.00
2023-05-19T18:46:29.800Z,102598.00
2023-05-19T18:51:32.349Z,102583.00
2023-05-19T18:56:34.926Z,102599.00
2023-05-19T19:01:38.945Z,102602.00
2023-05-19T19:06:42.002Z,102601.00
2023-05-19T19:11:44.856Z,102599.00
2023-05-19T19:16:48.931Z,102596.00
2023-05-19T19:21:51.370Z,102603.00
2023-05-19T19:26:53.889Z,102600.00
2023-05-19T19:31:57.965Z,102594.00
2023-05-19T19:37:00.606Z,102606.00
2023-05-19T19:42:03.297Z,102603.00
2023-05-19T19:47:07.226Z,102590.00
2023-05-19T19:52:09.786Z,102601.00
2023-05-19T19:57:15.272Z,102600.00
2023-05-19T20:02:19.219Z,102594.00
2023-05-19T20:07:21.808Z,102606.00
2023-05-19T20:12:24.701Z,102598.00
2023-05-19T20:17:28.845Z,102603.00
2023-05-19T20:22:31.364Z,102616.00
2023-05-19T20:27:33.948Z,102604.00
2023-05-19T20:32:37.878Z,102602.00
2023-05-19T20:37:40.658Z,102599.00
2023-05-19T20:42:43.347Z,102598.00
2023-05-19T20:47:47.288Z,102598.00
2023-05-19T20:52:49.904Z,102602.00
2023-05-19T20:57:52.505Z,102603.00
2023-05-19T21:02:56.531Z,102617.00
2023-05-19T21:07:59.497Z,102605.00
2023-05-19T21:13:02.341Z,102610.00
2023-05-19T21:18:07.079Z,102610.00
2023-05-19T21:23:09.777Z,102612.00
2023-05-19T21:28:12.369Z,102610.00
2023-05-19T21:33:16.274Z,102608.00
2023-05-19T21:38:23.962Z,102612.00
2023-05-19T21:43:26.805Z,102618.00
2023-05-19T21:48:30.579Z,102623.00
2023-05-19T21:53:33.228Z,102611.00
2023-05-19T21:58:35.705Z,102608.00
2023-05-19T22:03:39.572Z,102604.00
2023-05-19T22:08:42.230Z,102613.00
2023-05-19T22:13:44.732Z,102622.00
2023-05-19T22:18:48.645Z,102614.00
2023-05-19T22:23:53.845Z,102616.00
2023-05-19T22:28:56.376Z,102620.00
2023-05-19T22:34:00.328Z,102607.00
2023-05-19T22:39:02.857Z,102612.00
2023-05-19T22:44:05.337Z,102608.00
2023-05-19T22:49:09.142Z,102606.00
2023-05-19T22:54:11.607Z,102607.00
2023-05-19T22:59:14.102Z,102601.00
2023-05-19T23:04:17.995Z,102601.00
2023-05-19T23:09:20.447Z,102595.00
2023-05-19T23:14:23.011Z,102601.00
2023-05-19T23:19:27.118Z,102593.00
2023-05-19T23:24:29.727Z,102606.00
2023-05-19T23:29:32.140Z,102595.00
2023-05-19T23:34:38.948Z,102594.00
2023-05-19T23:39:41.453Z,102597.00
2023-05-19T23:44:44.184Z,102595.00
2023-05-19T23:49:48.069Z,102600.00
2023-05-19T23:54:50.624Z,102601.00
2023-05-19T23:59:53.115Z,102602.00
